Time;durP1;ratioP1;P1;durP2;ratioP2;P2;SDS_P1;SDS_P2;PMS_P1;PMS_P2;Temp;Humidity;BMP_temperature;BMP_pressure;BME280_temperature;BME280_humidity;BME280_pressure;Samples;Min_cycle;Max_cycle;Signal;HPM_P1;HPM_P2
2023/07/10 00:01:20;;;;;;;6.05;4.68;;;;;;;23.30;53.96;100251.16;4404412;32;33130;-75
2023/07/10 00:03:47;;;;;;;6.62;4.25;;;;;;;23.20;54.31;100254.69;4398036;32;33605;-73
2023/07/10 00:06:16;;;;;;;7.60;4.90;;;;;;;23.32;54.00;100254.66;4400450;32;33676;-73
2023/07/10 00:08:43;;;;;;;6.82;5.00;;;;;;;23.39;53.68;100244.09;4403951;32;34178;-73
2023/07/10 00:11:17;;;;;;;7.50;4.75;;;;;;;23.32;54.08;100254.66;4405686;32;32879;-73
2023/07/10 00:13:45;;;;;;;7.82;4.80;;;;;;;23.32;53.64;100256.44;4392165;32;33984;-74
2023/07/10 00:16:16;;;;;;;7.95;4.50;;;;;;;23.58;52.96;100250.25;4403525;32;34573;-74
2023/07/10 00:18:43;;;;;;;7.57;5.00;;;;;;;23.40;53.50;100262.59;4402804;32;32016;-76
2023/07/10 00:21:11;;;;;;;7.55;4.70;;;;;;;23.49;53.01;100252.03;4403390;32;32953;-79
2023/07/10 00:23:38;;;;;;;8.05;4.70;;;;;;;23.24;54.02;100251.16;4403984;32;33468;-77
2023/07/10 00:26:17;;;;;;;6.82;4.78;;;;;;;23.16;54.08;100256.44;4404231;32;33396;-75
2023/07/10 00:28:47;;;;;;;6.60;4.97;;;;;;;23.44;53.17;100258.19;4401732;32;33799;-75
2023/07/10 00:31:15;;;;;;;7.43;4.50;;;;;;;23.49;52.91;100256.44;4403213;32;33186;-77
2023/07/10 00:33:47;;;;;;;7.40;4.90;;;;;;;23.26;53.66;100259.97;4403190;32;32845;-75
2023/07/10 00:36:31;;;;;;;6.93;4.75;;;;;;;23.28;53.38;100252.91;4403949;32;33132;-75
2023/07/10 00:39:05;;;;;;;7.45;5.03;;;;;;;23.34;53.16;100259.97;4405666;32;33218;-70
2023/07/10 00:41:35;;;;;;;7.00;4.68;;;;;;;23.39;52.69;100262.59;4390390;32;31236;-71
2023/07/10 00:44:03;;;;;;;6.97;4.70;;;;;;;23.26;53.05;100253.81;4402654;32;33654;-70
2023/07/10 00:46:47;;;;;;;7.00;4.55;;;;;;;23.31;53.05;100252.03;4403772;32;34171;-71
2023/07/10 00:49:25;;;;;;;7.68;5.12;;;;;;;23.19;53.96;100258.19;4403017;32;33131;-73
2023/07/10 00:52:10;;;;;;;8.15;4.62;;;;;;;22.97;54.73;100260.78;4399708;32;33333;-70
2023/07/10 00:54:43;;;;;;;7.30;4.80;;;;;;;23.08;54.50;100252.00;4403976;32;33033;-70
2023/07/10 00:57:33;;;;;;;8.18;5.03;;;;;;;23.07;54.05;100252.91;4402449;32;33929;-71
2023/07/10 01:00:17;;;;;;;9.17;4.73;;;;;;;23.04;54.40;100252.88;4398467;32;33352;-71
2023/07/10 01:02:45;;;;;;;7.03;4.90;;;;;;;22.88;55.15;100252.84;4404047;32;32160;-70
2023/07/10 01:05:15;;;;;;;7.10;4.80;;;;;;;22.91;55.01;100250.22;4406783;32;33425;-71
2023/07/10 01:07:52;;;;;;;7.30;4.65;;;;;;;22.56;56.32;100251.00;4396302;32;32592;-71
2023/07/10 01:10:21;;;;;;;7.03;4.95;;;;;;;22.87;54.82;100244.91;4407893;32;33052;-71
2023/07/10 01:12:49;;;;;;;7.37;4.70;;;;;;;22.91;54.80;100247.56;4387405;32;33943;-71
2023/07/10 01:15:17;;;;;;;7.82;4.80;;;;;;;22.75;55.55;100251.03;4400828;32;34507;-71
2023/07/10 01:17:46;;;;;;;6.90;4.90;;;;;;;22.88;55.16;100252.84;4392624;32;33578;-71
2023/07/10 01:20:36;;;;;;;7.70;4.85;;;;;;;22.78;55.20;100251.94;4403761;32;33497;-71
2023/07/10 01:23:04;;;;;;;7.37;5.00;;;;;;;22.89;54.94;100249.31;4403759;32;32550;-70
2023/07/10 01:25:37;;;;;;;8.10;5.18;;;;;;;22.99;54.62;100250.22;4402776;32;33904;-71
2023/07/10 01:28:09;;;;;;;7.07;4.78;;;;;;;22.77;55.48;100254.56;4403594;32;33044;-71
2023/07/10 01:30:39;;;;;;;7.15;4.75;;;;;;;23.04;54.79;100258.16;4402106;32;33448;-70
2023/07/10 01:33:13;;;;;;;7.77;4.67;;;;;;;22.83;55.17;100248.41;4398787;32;32771;-71
2023/07/10 01:35:41;;;;;;;7.43;4.85;;;;;;;23.09;54.38;100251.16;4402822;32;33294;-71
2023/07/10 01:38:13;;;;;;;8.25;4.97;;;;;;;22.95;54.74;100249.34;4402139;32;34380;-71
2023/07/10 01:40:43;;;;;;;7.70;4.80;;;;;;;22.93;54.71;100240.53;4404816;32;34210;-71
2023/07/10 01:43:10;;;;;;;7.55;4.50;;;;;;;22.77;55.21;100244.00;4404055;32;33195;-71
2023/07/10 01:45:45;;;;;;;7.50;4.97;;;;;;;22.75;55.11;100258.97;4403202;32;33786;-71
2023/07/10 01:48:14;;;;;;;7.97;5.20;;;;;;;22.81;54.86;100253.69;4403065;32;33262;-71
2023/07/10 01:50:43;;;;;;;6.62;4.60;;;;;;;22.89;54.56;100249.31;4404724;32;33841;-71
2023/07/10 01:53:12;;;;;;;6.75;4.85;;;;;;;22.71;55.11;100249.28;4403316;32;32703;-71
2023/07/10 01:55:43;;;;;;;8.13;4.95;;;;;;;22.88;54.59;100244.91;4403143;32;33710;-71
2023/07/10 01:58:12;;;;;;;7.30;4.80;;;;;;;22.93;54.11;100240.53;4401084;32;32441;-71
2023/07/10 02:00:41;;;;;;;7.75;5.10;;;;;;;22.96;54.50;100239.63;4401678;32;32764;-71
2023/07/10 02:03:09;;;;;;;7.40;4.93;;;;;;;22.90;54.42;100244.91;4405389;32;33028;-71
2023/07/10 02:05:37;;;;;;;7.72;5.22;;;;;;;22.83;54.67;100249.31;4402745;32;33726;-71
2023/07/10 02:08:05;;;;;;;7.70;4.82;;;;;;;22.85;54.47;100242.28;4434632;27;34256;-78
2023/07/10 02:10:33;;;;;;;8.80;5.15;;;;;;;22.85;54.66;100247.56;4438530;32;33411;-77
2023/07/10 02:13:03;;;;;;;6.57;4.62;;;;;;;22.83;54.89;100244.03;4446715;32;32041;-79
2023/07/10 02:15:31;;;;;;;7.50;4.95;;;;;;;22.79;55.02;100244.88;4439243;32;33723;-79
2023/07/10 02:17:58;;;;;;;7.60;4.87;;;;;;;22.89;54.31;100244.03;4447058;32;33741;-78
2023/07/10 02:20:26;;;;;;;7.32;4.90;;;;;;;22.84;54.61;100240.50;4448614;32;33574;-79
2023/07/10 02:22:53;;;;;;;8.57;5.18;;;;;;;22.75;54.92;100241.38;4442297;32;33510;-78
2023/07/10 02:25:21;;;;;;;8.57;5.07;;;;;;;22.86;54.40;100244.03;4438425;32;34074;-77
2023/07/10 02:27:49;;;;;;;7.37;5.05;;;;;;;22.78;54.92;100240.50;4442744;32;32218;-79
2023/07/10 02:30:19;;;;;;;7.35;5.30;;;;;;;22.75;54.94;100243.13;4443338;32;33454;-77
2023/07/10 02:32:47;;;;;;;7.25;5.07;;;;;;;22.75;54.97;100240.47;4447390;32;33947;-79
2023/07/10 02:35:14;;;;;;;8.80;5.22;;;;;;;22.69;55.35;100240.47;4439098;32;33875;-77
2023/07/10 02:37:42;;;;;;;8.20;5.25;;;;;;;22.58;55.80;100243.97;4440373;32;33800;-79
2023/07/10 02:40:09;;;;;;;7.70;5.00;;;;;;;22.69;55.98;100240.47;4435883;32;34325;-77
2023/07/10 02:42:37;;;;;;;8.75;5.35;;;;;;;22.75;55.74;100245.75;4439674;32;34098;-77
2023/07/10 02:45:05;;;;;;;8.07;5.55;;;;;;;22.88;55.03;100236.09;4444599;32;34408;-77
2023/07/10 02:47:33;;;;;;;6.03;4.70;;;;;;;22.86;55.28;100243.16;4439249;32;33832;-77
2023/07/10 02:50:01;;;;;;;8.40;5.60;;;;;;;22.74;56.04;100242.25;4439367;32;34355;-78
2023/07/10 02:52:29;;;;;;;9.13;5.60;;;;;;;22.80;56.17;100244.03;4447227;32;33217;-79
2023/07/10 02:54:56;;;;;;;8.93;5.18;;;;;;;22.73;56.46;100242.22;4439970;32;34702;-78
2023/07/10 02:57:24;;;;;;;7.78;5.57;;;;;;;22.82;56.43;100241.38;4444118;32;34667;-78
2023/07/10 02:59:52;;;;;;;8.60;5.25;;;;;;;22.91;55.74;100244.06;4438103;32;32492;-78
2023/07/10 03:02:20;;;;;;;7.82;5.22;;;;;;;22.86;55.87;100244.03;4442557;32;33516;-78
2023/07/10 03:04:47;;;;;;;7.70;5.32;;;;;;;23.02;55.31;100238.75;4437336;32;33809;-78
2023/07/10 03:07:15;;;;;;;7.93;5.25;;;;;;;23.15;54.58;100237.94;4436045;32;34530;-78
2023/07/10 03:09:42;;;;;;;8.05;4.95;;;;;;;22.87;55.67;100229.94;4448454;32;32748;-77
2023/07/10 03:12:10;;;;;;;8.20;5.25;;;;;;;22.77;56.25;100233.44;4437560;32;33311;-79
2023/07/10 03:14:38;;;;;;;8.02;5.30;;;;;;;22.73;56.36;100231.66;4437851;32;33485;-78
2023/07/10 03:17:05;;;;;;;7.45;4.90;;;;;;;22.83;56.07;100233.47;4445941;32;33797;-78
2023/07/10 03:19:34;;;;;;;8.20;5.40;;;;;;;22.54;57.16;100238.66;4449706;32;34160;-79
2023/07/10 03:22:02;;;;;;;8.20;5.35;;;;;;;22.85;56.17;100237.00;4436643;32;32832;-78
2023/07/10 03:24:29;;;;;;;10.02;5.35;;;;;;;22.55;57.24;100237.81;4437511;32;33847;-77
2023/07/10 03:26:56;;;;;;;7.93;5.47;;;;;;;22.72;57.08;100245.78;4441710;32;33716;-78
2023/07/10 03:29:24;;;;;;;9.35;5.60;;;;;;;22.64;57.62;100232.56;4444498;32;34464;-77
2023/07/10 03:31:52;;;;;;;8.18;5.43;;;;;;;22.80;57.07;100236.09;4442288;32;33099;-78
2023/07/10 03:34:19;;;;;;;8.23;5.53;;;;;;;22.95;56.72;100238.75;4439009;32;34127;-78
2023/07/10 03:36:47;;;;;;;8.20;5.62;;;;;;;22.94;56.58;100236.97;4446396;32;33502;-78
2023/07/10 03:39:14;;;;;;;7.82;5.75;;;;;;;22.75;57.37;100229.91;4450662;32;33602;-79
2023/07/10 03:41:42;;;;;;;8.13;5.70;;;;;;;22.76;57.55;100229.06;4450693;32;33137;-79
2023/07/10 03:44:10;;;;;;;8.63;5.75;;;;;;;23.18;56.27;100222.09;4437493;32;33957;-79
2023/07/10 03:46:38;;;;;;;9.27;5.55;;;;;;;23.31;55.89;100226.50;4439539;32;33400;-78
2023/07/10 03:49:05;;;;;;;8.07;5.72;;;;;;;22.97;57.26;100223.78;4446270;32;33682;-79
2023/07/10 03:51:33;;;;;;;8.68;5.40;;;;;;;23.01;57.16;100221.16;4439880;32;33163;-78
2023/07/10 03:54:00;;;;;;;8.68;5.50;;;;;;;22.84;58.20;100218.50;4447981;32;33816;-79
2023/07/10 03:56:28;;;;;;;9.18;6.10;;;;;;;23.06;57.60;100224.72;4449043;32;34559;-79
2023/07/10 03:58:56;;;;;;;10.13;5.72;;;;;;;23.04;57.75;100222.06;4448349;32;33142;-78
2023/07/10 04:01:24;;;;;;;9.50;5.97;;;;;;;23.05;58.00;100225.59;4449360;32;34006;-78
2023/07/10 04:03:52;;;;;;;9.48;6.12;;;;;;;23.22;57.50;100225.59;4437529;32;33821;-78
2023/07/10 04:06:19;;;;;;;9.50;5.82;;;;;;;23.11;57.99;100222.97;4440785;32;33897;-79
2023/07/10 04:08:47;;;;;;;8.27;5.90;;;;;;;23.14;58.07;100220.28;4445460;32;34375;-78
2023/07/10 04:11:17;;;;;;;8.73;5.65;;;;;;;23.27;57.53;100219.41;4439204;32;33961;-77
2023/07/10 04:13:46;;;;;;;9.73;6.18;;;;;;;23.26;57.73;100220.31;4440393;32;33358;-77
2023/07/10 04:16:20;;;;;;;8.10;5.50;;;;;;;23.10;58.21;100223.81;4443600;32;33598;-79
2023/07/10 04:18:50;;;;;;;9.65;5.70;;;;;;;23.38;57.04;100229.12;4443195;32;33337;-78
2023/07/10 04:21:19;;;;;;;8.38;5.72;;;;;;;23.39;57.37;100230.87;4444698;32;32211;-78
2023/07/10 04:23:47;;;;;;;9.77;5.57;;;;;;;23.35;57.70;100229.97;4448355;32;34513;-77
2023/07/10 04:26:19;;;;;;;10.15;6.25;;;;;;;23.34;58.03;100230.87;4438260;32;33643;-78
2023/07/10 04:28:48;;;;;;;10.77;6.10;;;;;;;23.40;58.11;100230.00;4441328;32;33233;-79
2023/07/10 04:31:17;;;;;;;9.05;6.10;;;;;;;23.54;58.12;100230.84;4440511;32;32776;-79
2023/07/10 04:33:45;;;;;;;8.60;5.82;;;;;;;23.62;57.61;100226.41;4440951;32;34558;-78
2023/07/10 04:36:12;;;;;;;11.45;5.62;;;;;;;23.58;58.25;100235.25;4445837;32;33851;-78
2023/07/10 04:38:40;;;;;;;8.95;6.20;;;;;;;23.59;58.39;100231.75;4444177;32;34380;-77
2023/07/10 04:41:11;;;;;;;9.77;6.15;;;;;;;23.63;58.40;100230.84;4448776;32;33946;-78
2023/07/10 04:43:39;;;;;;;9.32;6.03;;;;;;;23.63;58.30;100222.91;4442259;32;34031;-78
2023/07/10 04:46:09;;;;;;;8.63;5.85;;;;;;;23.73;57.84;100219.34;4441085;32;33968;-79
2023/07/10 04:48:36;;;;;;;9.55;6.00;;;;;;;23.86;57.13;100224.66;4439637;32;33253;-77
2023/07/10 04:51:05;;;;;;;8.23;5.95;;;;;;;23.94;56.66;100229.03;4441268;32;33140;-77
2023/07/10 04:53:33;;;;;;;9.70;5.83;;;;;;;23.96;57.00;100226.38;4450125;32;34012;-79
2023/07/10 04:56:03;;;;;;;7.20;5.90;;;;;;;24.01;57.25;100224.63;4441939;32;33008;-77
2023/07/10 04:58:54;;;;;;;12.68;6.53;;;;;;;24.02;57.98;100225.50;4444344;32;32613;-78
2023/07/10 05:01:24;;;;;;;9.70;6.15;;;;;;;24.16;58.84;100231.59;4442757;32;32231;-77
2023/07/10 05:03:53;;;;;;;10.88;6.30;;;;;;;24.25;58.86;100225.41;4437300;32;33097;-77
2023/07/10 05:06:20;;;;;;;9.95;6.82;;;;;;;24.41;59.09;100227.06;4443281;32;33584;-78
2023/07/10 05:08:52;;;;;;;10.45;6.70;;;;;;;24.50;58.62;100229.69;4440049;32;33566;-77
2023/07/10 05:11:21;;;;;;;9.02;6.30;;;;;;;24.53;58.36;100235.00;4440363;32;33647;-77
2023/07/10 05:13:49;;;;;;;10.13;6.50;;;;;;;24.58;58.29;100232.31;4442797;32;33501;-78
2023/07/10 05:16:17;;;;;;;11.27;6.53;;;;;;;24.86;57.87;100241.00;4447519;32;33551;-77
2023/07/10 05:18:45;;;;;;;9.95;6.65;;;;;;;24.98;57.62;100236.50;4448024;32;33681;-78
2023/07/10 05:21:13;;;;;;;10.15;6.68;;;;;;;24.90;58.29;100241.84;4440021;32;33438;-79
2023/07/10 05:23:40;;;;;;;10.73;6.30;;;;;;;25.10;57.78;100247.88;4449619;32;33858;-78
2023/07/10 05:26:10;;;;;;;11.45;6.85;;;;;;;25.19;57.69;100236.31;4437924;32;33439;-79
2023/07/10 05:28:38;;;;;;;9.57;6.82;;;;;;;25.13;58.39;100231.09;4445733;32;34181;-78
2023/07/10 05:31:07;;;;;;;11.75;6.95;;;;;;;25.29;57.56;100238.03;4437254;32;32825;-78
2023/07/10 05:33:36;;;;;;;11.25;6.80;;;;;;;25.31;57.29;100230.94;4445596;32;34536;-78
2023/07/10 05:36:07;;;;;;;11.65;7.20;;;;;;;25.39;57.37;100232.66;4445491;32;33650;-80
2023/07/10 05:38:35;;;;;;;10.70;7.10;;;;;;;25.53;57.49;100241.34;4441407;32;32905;-79
2023/07/10 05:41:03;;;;;;;11.75;7.20;;;;;;;25.63;56.73;100243.03;4442219;32;34002;-80
2023/07/10 05:43:32;;;;;;;10.25;6.85;;;;;;;25.66;56.68;100248.28;4447964;32;33925;-78
2023/07/10 05:45:59;;;;;;;12.52;7.15;;;;;;;25.73;56.53;100248.22;4440225;32;33430;-79
2023/07/10 05:48:28;;;;;;;9.25;6.50;;;;;;;25.81;56.67;100249.91;4446109;32;33605;-80
2023/07/10 05:50:56;;;;;;;10.02;6.70;;;;;;;26.02;55.91;100251.50;4447454;32;32860;-80
2023/07/10 05:53:24;;;;;;;11.65;7.20;;;;;;;26.04;55.95;100244.41;4438755;32;33917;-79
2023/07/10 05:55:53;;;;;;;11.95;7.22;;;;;;;26.16;56.15;100247.81;4441632;32;33510;-80
2023/07/10 05:58:24;;;;;;;11.40;7.35;;;;;;;26.31;55.13;100242.31;4440565;32;33121;-80
2023/07/10 06:00:54;;;;;;;9.80;7.00;;;;;;;26.56;54.88;100240.19;4443941;32;31945;-80
2023/07/10 06:03:22;;;;;;;10.40;6.90;;;;;;;26.56;54.87;100244.63;4445662;32;33577;-80
2023/07/10 06:06:01;;;;;;;9.50;6.77;;;;;;;26.62;54.79;100247.25;4444876;32;34408;-81
2023/07/10 06:08:30;;;;;;;10.23;7.20;;;;;;;26.75;54.14;100243.47;4443313;32;33582;-80
2023/07/10 06:10:57;;;;;;;9.13;6.65;;;;;;;26.97;53.34;100243.19;4438882;32;33237;-80
2023/07/10 06:13:25;;;;;;;9.50;6.70;;;;;;;27.05;53.29;100238.62;4447815;32;33538;-80
2023/07/10 06:15:55;;;;;;;11.07;6.43;;;;;;;27.25;52.31;100239.22;4438489;32;33494;-80
2023/07/10 06:18:24;;;;;;;10.07;6.65;;;;;;;27.23;53.20;100232.12;4444200;32;33141;-81
2023/07/10 06:20:53;;;;;;;9.82;6.70;;;;;;;27.64;51.88;100233.19;4445773;32;33358;-81
2023/07/10 06:23:21;;;;;;;9.50;6.53;;;;;;;27.63;51.68;100229.66;4443169;32;34038;-80
2023/07/10 06:25:51;;;;;;;9.38;6.20;;;;;;;28.04;50.52;100225.34;4436380;32;34194;-80
2023/07/10 06:28:19;;;;;;;10.25;6.87;;;;;;;28.29;50.32;100224.84;4445657;32;33212;-81
2023/07/10 06:30:59;;;;;;;8.88;6.15;;;;;;;28.22;50.53;100233.84;4444614;32;33002;-80
2023/07/10 06:33:27;;;;;;;9.45;6.40;;;;;;;28.48;50.16;100229.78;4442227;32;33164;-79
2023/07/10 06:35:55;;;;;;;10.63;6.85;;;;;;;28.72;49.06;100229.22;4445616;32;33876;-81
2023/07/10 06:38:22;;;;;;;9.68;6.05;;;;;;;28.81;48.92;100234.34;4443995;32;33927;-78
2023/07/10 06:40:51;;;;;;;11.07;7.00;;;;;;;28.97;47.42;100224.19;4440901;32;34008;-79
2023/07/10 06:43:20;;;;;;;7.90;6.17;;;;;;;28.77;48.84;100227.34;4442461;32;33198;-79
2023/07/10 06:45:48;;;;;;;9.80;6.25;;;;;;;29.19;47.42;100224.59;4441883;32;33466;-78
2023/07/10 06:48:16;;;;;;;8.57;6.28;;;;;;;29.20;47.00;100226.31;4438473;32;34506;-79
2023/07/10 06:50:54;;;;;;;8.50;6.07;;;;;;;29.56;45.96;100226.28;4442027;32;33995;-79
2023/07/10 06:53:23;;;;;;;10.75;6.45;;;;;;;29.62;45.44;100232.41;4439607;32;32791;-78
2023/07/10 06:56:02;;;;;;;9.00;5.90;;;;;;;29.43;46.53;100224.88;4447885;32;33268;-79
2023/07/10 06:58:31;;;;;;;9.82;6.43;;;;;;;29.71;46.09;100221.44;4444755;32;33148;-79
2023/07/10 07:01:00;;;;;;;8.20;6.18;;;;;;;29.87;45.98;100222.81;4441350;32;34120;-79
2023/07/10 07:03:28;;;;;;;10.27;5.82;;;;;;;29.94;45.14;100224.41;4438834;32;33651;-79
2023/07/10 07:05:56;;;;;;;9.77;6.27;;;;;;;30.08;44.27;100215.12;4444070;32;34036;-79
2023/07/10 07:08:24;;;;;;;7.57;5.67;;;;;;;30.14;44.68;100214.94;4443519;32;33588;-78
2023/07/10 07:10:53;;;;;;;7.32;5.60;;;;;;;30.29;44.17;100218.94;4444224;32;32962;-78
2023/07/10 07:13:20;;;;;;;10.13;6.07;;;;;;;30.62;43.34;100214.41;4438198;32;33811;-78
2023/07/10 07:15:51;;;;;;;9.70;5.93;;;;;;;30.66;42.89;100212.50;4442212;32;33423;-78
2023/07/10 07:18:19;;;;;;;10.32;5.70;;;;;;;30.85;42.81;100207.41;4438146;32;33178;-77
2023/07/10 07:20:47;;;;;;;8.03;5.83;;;;;;;31.48;40.48;100208.03;4440441;32;33525;-77
2023/07/10 07:23:15;;;;;;;6.90;5.68;;;;;;;31.13;41.05;100212.78;4437439;32;34292;-76
2023/07/10 07:25:43;;;;;;;8.45;5.85;;;;;;;31.04;41.22;100208.62;4437647;32;33533;-75
2023/07/10 07:28:11;;;;;;;8.15;5.50;;;;;;;31.25;41.69;100207.00;4442334;32;33853;-76
2023/07/10 07:30:47;;;;;;;10.95;6.07;;;;;;;31.62;40.62;100211.13;4439291;32;33266;-77
2023/07/10 07:33:19;;;;;;;9.27;5.60;;;;;;;31.50;40.28;100211.53;4438797;32;33181;-78
2023/07/10 07:35:48;;;;;;;10.38;5.95;;;;;;;31.90;39.98;100221.69;4441609;32;33118;-78
2023/07/10 07:38:16;;;;;;;8.82;5.37;;;;;;;32.02;38.55;100209.69;4441931;32;33056;-77
2023/07/10 07:40:44;;;;;;;6.82;5.35;;;;;;;32.22;38.87;100206.25;4440979;32;33224;-77
2023/07/10 07:43:11;;;;;;;8.95;5.32;;;;;;;32.51;38.82;100198.91;4444441;32;33112;-78
2023/07/10 07:45:39;;;;;;;8.70;5.65;;;;;;;32.77;36.89;100202.34;4445819;32;32262;-77
2023/07/10 07:48:07;;;;;;;7.93;5.43;;;;;;;33.00;36.60;100204.97;4443287;32;33832;-78
2023/07/10 07:50:34;;;;;;;8.35;5.85;;;;;;;33.18;35.67;100207.84;4444056;32;33971;-78
2023/07/10 07:53:02;;;;;;;7.80;5.50;;;;;;;33.31;35.98;100214.44;4437430;32;33874;-79
2023/07/10 07:55:29;;;;;;;8.70;5.45;;;;;;;33.48;35.92;100206.53;4440108;32;34702;-78
2023/07/10 07:57:57;;;;;;;8.68;5.35;;;;;;;33.73;35.34;100205.47;4448273;32;34384;-78
2023/07/10 08:00:25;;;;;;;8.35;5.68;;;;;;;34.30;34.57;100192.13;4440649;32;34035;-79
2023/07/10 08:02:55;;;;;;;8.32;5.10;;;;;;;34.54;33.31;100184.69;4440745;32;34108;-78
2023/07/10 08:05:24;;;;;;;9.13;5.70;;;;;;;34.33;34.55;100196.50;4439323;32;33707;-78
2023/07/10 08:07:55;;;;;;;7.10;4.97;;;;;;;34.47;33.88;100185.94;4444036;32;33451;-78
2023/07/10 08:10:22;;;;;;;8.73;5.30;;;;;;;34.87;33.69;100184.00;4439898;32;33370;-79
2023/07/10 08:12:50;;;;;;;7.47;5.53;;;;;;;34.79;33.13;100180.81;4440352;32;34678;-77
2023/07/10 08:15:18;;;;;;;7.75;4.97;;;;;;;34.73;33.42;100189.19;4442725;32;33487;-78
2023/07/10 08:17:45;;;;;;;7.45;5.00;;;;;;;34.93;33.18;100178.31;4444976;32;35007;-78
2023/07/10 08:20:13;;;;;;;8.13;5.32;;;;;;;35.08;32.79;100181.16;4437185;32;34007;-79
2023/07/10 08:22:40;;;;;;;8.13;5.05;;;;;;;35.14;32.11;100176.34;4437947;32;34023;-78
2023/07/10 08:25:08;;;;;;;8.07;5.15;;;;;;;35.51;31.61;100173.59;4439767;32;34026;-78
2023/07/10 08:27:36;;;;;;;7.35;5.10;;;;;;;35.66;30.83;100174.59;4448445;32;33818;-78
2023/07/10 08:30:04;;;;;;;6.90;4.70;;;;;;;35.83;30.19;100170.09;4447887;32;33028;-78
2023/07/10 08:32:32;;;;;;;8.05;5.10;;;;;;;35.65;30.24;100176.41;4441152;32;33314;-78
2023/07/10 08:34:59;;;;;;;7.37;4.93;;;;;;;35.93;29.37;100170.44;4447938;32;33320;-78
2023/07/10 08:37:27;;;;;;;8.50;4.70;;;;;;;36.07;29.37;100169.69;4440650;32;33387;-78
2023/07/10 08:39:58;;;;;;;7.10;4.87;;;;;;;36.18;28.94;100164.59;4440604;32;33351;-78
2023/07/10 08:42:29;;;;;;;7.50;4.93;;;;;;;36.24;28.92;100163.38;4440670;32;34095;-78
2023/07/10 08:44:58;;;;;;;7.85;5.00;;;;;;;36.49;27.94;100154.75;4441696;32;34164;-78
2023/07/10 08:47:37;;;;;;;7.10;4.55;;;;;;;36.63;27.22;100153.97;4440933;32;33895;-78
2023/07/10 08:50:25;;;;;;;8.00;5.00;;;;;;;36.52;27.86;100164.50;4427109;32;32904;-78
2023/07/10 08:53:12;;;;;;;8.30;5.40;;;;;;;36.60;28.36;100165.78;4439752;32;32837;-78
2023/07/10 08:55:42;;;;;;;7.03;5.20;;;;;;;36.10;28.84;100157.84;4440869;32;32703;-78
2023/07/10 08:58:29;;;;;;;6.70;4.95;;;;;;;36.31;28.55;100153.09;4440745;32;33234;-78
2023/07/10 09:01:00;;;;;;;8.15;5.47;;;;;;;36.22;28.87;100152.69;4441855;32;32266;-78
2023/07/10 09:03:30;;;;;;;6.70;4.82;;;;;;;36.17;29.45;100151.19;4441161;32;33721;-78
2023/07/10 09:05:58;;;;;;;7.13;5.07;;;;;;;36.65;28.92;100153.91;4440509;32;33415;-78
2023/07/10 09:08:26;;;;;;;8.93;5.07;;;;;;;36.76;28.66;100154.12;4430936;32;33136;-78
2023/07/10 09:10:57;;;;;;;7.50;5.00;;;;;;;36.56;28.55;100142.63;4444271;32;33062;-78
2023/07/10 09:13:33;;;;;;;8.38;5.12;;;;;;;36.88;28.15;100145.31;4451721;32;33473;-79
2023/07/10 09:16:01;;;;;;;8.40;5.00;;;;;;;36.91;27.85;100150.50;4426923;32;32459;-78
2023/07/10 09:18:32;;;;;;;6.87;4.90;;;;;;;37.19;27.17;100146.22;4440650;32;33328;-78
2023/07/10 09:21:00;;;;;;;7.45;4.90;;;;;;;37.11;27.16;100141.25;4448163;32;32345;-78
2023/07/10 09:23:29;;;;;;;8.37;5.20;;;;;;;37.39;27.16;100148.53;4446785;32;33803;-77
2023/07/10 09:25:59;;;;;;;9.55;5.40;;;;;;;37.65;26.64;100143.41;4439085;32;33515;-79
2023/07/10 09:28:27;;;;;;;8.73;4.93;;;;;;;37.32;26.71;100147.22;4439080;32;33224;-78
2023/07/10 09:31:09;;;;;;;8.10;5.00;;;;;;;37.49;26.60;100137.16;4441379;32;33288;-79
2023/07/10 09:33:49;;;;;;;8.15;4.93;;;;;;;37.71;25.92;100126.78;4437977;32;32817;-78
2023/07/10 09:36:19;;;;;;;9.27;4.77;;;;;;;37.70;26.25;100129.59;4438889;32;33006;-78
2023/07/10 09:38:48;;;;;;;5.87;4.90;;;;;;;37.55;26.86;100120.56;4437995;32;33640;-78
2023/07/10 09:41:20;;;;;;;13.32;5.43;;;;;;;38.13;25.07;100125.03;4446428;32;32715;-78
2023/07/10 09:44:16;;;;;;;9.25;4.70;;;;;;;37.83;25.74;100118.87;4446568;32;33193;-78
2023/07/10 09:46:44;;;;;;;9.65;5.12;;;;;;;37.85;25.91;100128.63;4438055;32;32943;-78
2023/07/10 09:49:18;;;;;;;7.50;4.93;;;;;;;38.02;25.24;100119.44;4445947;32;33247;-78
2023/07/10 09:51:57;;;;;;;7.10;5.00;;;;;;;38.10;25.59;100117.12;4443323;32;32976;-78
2023/07/10 09:54:37;;;;;;;7.20;4.97;;;;;;;38.01;26.32;100106.84;4440425;32;32893;-78
2023/07/10 09:57:16;;;;;;;7.28;4.78;;;;;;;38.02;25.95;100107.75;4443743;32;33975;-79
2023/07/10 09:59:51;;;;;;;5.95;4.18;;;;;;;38.32;24.60;100104.87;4455373;32;34507;-78
2023/07/10 10:02:40;;;;;;;6.12;4.32;;;;;;;38.37;24.36;100110.88;4436549;32;34085;-78
2023/07/10 10:05:11;;;;;;;7.60;4.75;;;;;;;38.53;24.19;100108.03;4440172;32;33916;-77
2023/07/10 10:07:41;;;;;;;5.82;4.25;;;;;;;38.52;24.22;100107.12;4444003;32;33428;-79
2023/07/10 10:10:31;;;;;;;8.07;4.65;;;;;;;38.87;23.67;100090.38;4444060;32;35604;-79
2023/07/10 10:13:03;;;;;;;7.07;4.90;;;;;;;38.67;23.52;100098.97;4441308;32;33079;-80
2023/07/10 10:15:42;;;;;;;7.35;4.40;;;;;;;38.65;23.92;100092.78;4440867;32;33684;-78
2023/07/10 10:18:21;;;;;;;7.82;4.50;;;;;;;38.91;23.26;100099.16;4441747;32;33714;-78
2023/07/10 10:20:49;;;;;;;6.50;4.33;;;;;;;38.27;24.13;100080.84;4438598;32;33696;-78
2023/07/10 10:23:29;;;;;;;7.28;4.65;;;;;;;38.19;25.14;100082.31;4439696;32;33433;-78
2023/07/10 10:26:08;;;;;;;6.65;4.45;;;;;;;38.29;24.22;100084.31;4445992;32;33792;-78
2023/07/10 10:29:02;;;;;;;10.15;4.37;;;;;;;38.97;23.36;100084.31;4442167;32;33780;-78
2023/07/10 10:31:43;;;;;;;8.80;4.40;;;;;;;38.72;23.65;100070.63;4445857;32;33540;-79
2023/07/10 10:34:24;;;;;;;6.97;4.97;;;;;;;39.14;23.63;100067.78;4439612;32;31325;-78
2023/07/10 10:37:04;;;;;;;7.22;4.70;;;;;;;38.83;23.93;100069.88;4443879;32;34720;-78
2023/07/10 10:39:42;;;;;;;6.30;4.55;;;;;;;39.08;24.71;100076.34;4441842;32;33307;-78
2023/07/10 10:42:22;;;;;;;6.50;4.65;;;;;;;39.12;24.42;100083.28;4439024;32;33757;-78
2023/07/10 10:44:56;;;;;;;6.90;5.10;;;;;;;39.17;24.38;100070.25;4453226;32;34143;-78
2023/07/10 10:47:39;;;;;;;6.12;4.60;;;;;;;39.24;23.64;100070.72;4445943;32;33579;-79
2023/07/10 10:50:22;;;;;;;6.97;4.62;;;;;;;39.32;24.02;100069.16;4443643;32;33905;-79
2023/07/10 10:52:56;;;;;;;7.95;4.62;;;;;;;39.36;24.19;100058.13;4440320;32;33822;-79
2023/07/10 10:55:29;;;;;;;;;;;;;;;39.48;23.82;100057.28;4446886;32;33209;-78
2023/07/10 10:58:02;;;;;;;;;;;;;;;39.82;23.87;100061.09;4443355;32;34384;-79
2023/07/10 11:00:34;;;;;;;;;;;;;;;39.61;23.86;100066.25;4440984;32;34576;-78
2023/07/10 11:03:08;;;;;;;;;;;;;;;39.64;23.83;100054.31;4438352;32;34657;-79
2023/07/10 11:05:39;;;;;;;;;;;;;;;39.42;23.76;100046.84;4441196;32;32982;-80
2023/07/10 11:08:25;;;;;;;;;;;;;;;39.66;24.42;100050.53;4437546;32;33685;-78
2023/07/10 11:10:54;;;;;;;;;;;;;;;39.62;22.75;100058.97;4449881;32;34846;-78
2023/07/10 11:13:35;;;;;;;;;;;;;;;39.40;24.04;100051.50;4441442;32;34658;-78
2023/07/10 11:16:03;;;;;;;;;;;;;;;39.53;24.39;100049.69;4440917;32;33932;-78
2023/07/10 11:18:31;;;;;;;;;;;;;;;39.60;23.58;100056.41;4441253;32;34853;-78
2023/07/10 11:21:01;;;;;;;;;;;;;;;39.45;24.17;100049.38;4445830;32;33920;-78
2023/07/10 11:23:41;;;;;;;;;;;;;;;39.67;23.60;100037.81;4444334;32;34773;-79
2023/07/10 11:26:20;;;;;;;;;;;;;;;39.60;23.91;100040.13;4440077;32;33281;-79
2023/07/10 11:29:00;;;;;;;;;;;;;;;39.44;24.06;100042.22;4445613;32;34897;-79
2023/07/10 11:31:36;;;;;;;;;;;;;;;39.24;24.86;100032.78;4441657;32;34683;-78
2023/07/10 11:34:06;;;;;;;;;;;;;;;39.29;23.16;100039.59;4441889;32;33824;-78
2023/07/10 11:36:34;;;;;;;;;;;;;;;39.19;22.48;100045.78;4442766;32;32289;-78
2023/07/10 11:39:09;;;;;;;;;;;;;;;39.06;22.73;100034.94;4442483;32;34816;-78
2023/07/10 11:41:43;;;;;;;;;;;;;;;39.04;22.50;100039.59;4450319;32;34204;-79
2023/07/10 11:44:12;;;;;;;;;;;;;;;38.80;22.56;100034.88;4434417;32;32957;-78
2023/07/10 11:46:59;;;;;;;;;;;;;;;39.07;22.67;100025.84;4442511;32;33058;-78